createdAt,value
2022-09-10T00:01:51.010Z,37.97
2022-09-10T00:04:20.383Z,42.85
2022-09-10T00:06:50.361Z,36.55
2022-09-10T00:09:21.333Z,40.05
2022-09-10T00:11:50.764Z,41.20
2022-09-10T00:14:24.749Z,38.95
2022-09-10T00:16:55.220Z,39.20
2022-09-10T00:19:24.976Z,46.53
2022-09-10T00:21:54.925Z,43.78
2022-09-10T00:24:24.444Z,38.75
2022-09-10T00:26:53.951Z,37.55
2022-09-10T00:29:25.485Z,35.97
2022-09-10T00:31:55.153Z,33.33
2022-09-10T00:34:25.027Z,34.43
2022-09-10T00:36:54.351Z,37.13
2022-09-10T00:39:23.946Z,35.13
2022-09-10T00:41:56.140Z,36.33
2022-09-10T00:44:59.706Z,31.50
2022-09-10T00:47:34.071Z,34.88
2022-09-10T00:50:09.246Z,49.65
2022-09-10T00:52:40.018Z,37.75
2022-09-10T00:55:11.529Z,37.78
2022-09-10T00:57:43.806Z,38.83
2022-09-10T01:00:16.541Z,39.85
2022-09-10T01:02:47.132Z,40.22
2022-09-10T01:05:17.710Z,45.28
2022-09-10T01:10:22.296Z,40.63
2022-09-10T01:13:25.803Z,40.10
2022-09-10T01:16:03.684Z,45.38
2022-09-10T01:18:42.264Z,44.47
2022-09-10T01:21:23.888Z,47.20
2022-09-10T01:24:25.618Z,44.17
2022-09-10T01:27:31.357Z,42.85
2022-09-10T01:30:07.612Z,41.88
2022-09-10T01:32:50.648Z,42.85
2022-09-10T01:35:23.830Z,47.95
2022-09-10T01:37:56.889Z,43.47
2022-09-10T01:40:30.355Z,41.22
2022-09-10T01:43:02.666Z,42.70
2022-09-10T01:45:38.256Z,46.17
2022-09-10T01:48:29.174Z,44.17
2022-09-10T01:51:09.188Z,40.70
2022-09-10T01:54:00.542Z,43.88
2022-09-10T01:56:40.108Z,45.22
2022-09-10T01:59:19.816Z,45.40
2022-09-10T02:01:54.316Z,40.05
2022-09-10T02:04:25.157Z,55.05
2022-09-10T02:06:55.286Z,50.70
2022-09-10T02:09:24.930Z,49.58
2022-09-10T02:11:56.440Z,52.20
2022-09-10T02:14:27.207Z,50.38
2022-09-10T02:16:59.804Z,54.65
2022-09-10T02:19:30.002Z,55.55
2022-09-10T02:22:01.278Z,63.13
2022-09-10T02:24:31.009Z,57.67
2022-09-10T02:27:01.071Z,59.63
2022-09-10T02:29:32.299Z,61.67
2022-09-10T02:32:04.591Z,51.80
2022-09-10T02:34:34.474Z,60.53
2022-09-10T02:37:04.665Z,61.15
2022-09-10T02:39:33.971Z,61.45
2022-09-10T02:42:03.482Z,56.13
2022-09-10T02:44:33.005Z,53.30
2022-09-10T02:47:03.718Z,61.22
2022-09-10T02:49:34.965Z,48.22
2022-09-10T02:52:05.073Z,57.05
2022-09-10T02:54:34.791Z,55.57
2022-09-10T02:57:04.179Z,50.35
2022-09-10T02:59:34.886Z,58.20
2022-09-10T03:02:05.901Z,49.80
2022-09-10T03:04:35.481Z,50.25
2022-09-10T03:07:05.625Z,48.20
2022-09-10T03:09:35.942Z,52.55
2022-09-10T03:12:05.907Z,47.53
2022-09-10T03:14:35.161Z,51.17
2022-09-10T03:17:06.451Z,54.65
2022-09-10T03:19:36.145Z,40.53
2022-09-10T03:22:05.677Z,42.03
2022-09-10T03:24:35.127Z,45.25
2022-09-10T03:27:04.750Z,49.45
2022-09-10T03:29:34.021Z,40.70
2022-09-10T03:32:05.139Z,45.80
2022-09-10T03:34:34.682Z,46.35
2022-09-10T03:37:04.102Z,49.58
2022-09-10T03:39:33.346Z,52.15
2022-09-10T03:42:05.537Z,49.25
2022-09-10T03:44:35.253Z,44.85
2022-09-10T03:47:07.142Z,46.22
2022-09-10T03:49:36.386Z,48.28
2022-09-10T03:52:06.548Z,51.53
2022-09-10T03:54:35.773Z,50.72
2022-09-10T03:57:05.222Z,49.13
2022-09-10T03:59:35.091Z,50.60
2022-09-10T04:02:05.988Z,50.40
2022-09-10T04:04:37.600Z,52.97
2022-09-10T04:09:36.243Z,54.78
2022-09-10T04:12:06.412Z,52.40
2022-09-10T04:14:35.945Z,54.75
2022-09-10T04:17:06.981Z,52.25
2022-09-10T04:19:37.000Z,53.92
2022-09-10T04:22:06.353Z,53.47
2022-09-10T04:24:35.743Z,51.60
2022-09-10T04:27:06.647Z,51.13
2022-09-10T04:29:35.915Z,56.78
2022-09-10T04:32:07.354Z,57.60
2022-09-10T04:37:06.462Z,52.33
2022-09-10T04:39:36.621Z,52.90
2022-09-10T04:42:07.153Z,45.63
2022-09-10T04:44:37.076Z,51.90
2022-09-10T04:47:08.034Z,45.47
2022-09-10T04:49:37.888Z,48.47
2022-09-10T04:52:07.269Z,55.05
2022-09-10T04:54:37.788Z,53.80
2022-09-10T04:59:36.726Z,50.20
2022-09-10T05:02:09.524Z,55.13
2022-09-10T05:04:39.620Z,51.35
2022-09-10T05:07:08.876Z,52.55
2022-09-10T05:09:38.182Z,53.03
2022-09-10T05:12:07.997Z,52.97
2022-09-10T05:14:38.325Z,59.17
2022-09-10T05:17:09.277Z,49.22
2022-09-10T05:19:39.251Z,50.15
2022-09-10T05:22:09.994Z,49.83
2022-09-10T05:27:09.004Z,50.75
2022-09-10T05:29:38.264Z,50.15
2022-09-10T05:32:10.137Z,49.20
2022-09-10T05:34:40.337Z,53.60
2022-09-10T05:37:09.850Z,45.75
2022-09-10T05:39:39.275Z,53.20
2022-09-10T05:42:08.731Z,41.97
2022-09-10T05:44:38.286Z,44.38
2022-09-10T05:47:09.301Z,44.38
2022-09-10T05:49:38.844Z,41.63
2022-09-10T05:52:08.718Z,36.53
2022-09-10T05:54:38.105Z,41.45
2022-09-10T05:57:07.828Z,41.47
2022-09-10T05:59:37.225Z,43.55
2022-09-10T06:02:06.727Z,41.35
2022-09-10T06:04:38.167Z,42.97
2022-09-10T06:09:38.726Z,41.97
2022-09-10T06:12:08.319Z,39.72
2022-09-10T06:14:37.750Z,38.17
2022-09-10T06:17:08.799Z,40.63
2022-09-10T06:19:40.146Z,38.83
2022-09-10T06:22:11.368Z,42.10
2022-09-10T06:24:41.070Z,38.60
2022-09-10T06:27:11.230Z,37.58
2022-09-10T06:29:40.480Z,36.28
2022-09-10T06:32:09.716Z,33.83
2022-09-10T06:34:41.176Z,35.55
2022-09-10T06:39:40.162Z,39.47
2022-09-10T06:42:10.181Z,36.15
2022-09-10T06:44:39.674Z,42.07
2022-09-10T06:50:00.275Z,34.75
2022-09-10T06:52:30.618Z,33.65
2022-09-10T06:55:00.233Z,32.75
2022-09-10T06:57:29.657Z,37.72
2022-09-10T06:59:59.316Z,38.00
2022-09-10T07:02:28.636Z,35.03
2022-09-10T07:04:57.907Z,37.88
2022-09-10T07:07:30.001Z,34.95
2022-09-10T07:09:59.393Z,40.95
2022-09-10T07:12:29.389Z,33.20
2022-09-10T07:14:58.605Z,40.70
2022-09-10T07:17:31.763Z,31.65
2022-09-10T07:20:01.891Z,32.63
2022-09-10T07:22:32.704Z,33.45
2022-09-10T07:27:31.646Z,32.60
2022-09-10T07:30:00.894Z,34.20
2022-09-10T07:32:30.961Z,34.50
2022-09-10T07:35:01.161Z,42.00
2022-09-10T07:37:32.071Z,36.08
2022-09-10T07:40:01.659Z,35.47
2022-09-10T07:42:30.998Z,29.85
2022-09-10T07:45:00.984Z,31.27
2022-09-10T07:47:30.521Z,36.00
2022-09-10T07:50:00.086Z,32.60
2022-09-10T07:52:29.517Z,30.58
2022-09-10T07:55:01.053Z,29.83
2022-09-10T07:57:31.790Z,25.15
2022-09-10T08:00:02.147Z,30.73
2022-09-10T08:02:31.628Z,31.00
2022-09-10T08:05:01.390Z,29.23
2022-09-10T08:07:31.614Z,31.90
2022-09-10T08:10:02.529Z,30.07
2022-09-10T08:12:33.962Z,31.95
2022-09-10T08:17:33.457Z,29.67
2022-09-10T08:20:03.569Z,29.27
2022-09-10T08:22:33.050Z,31.30
2022-09-10T08:25:04.643Z,28.80
2022-09-10T08:30:03.621Z,27.50
2022-09-10T08:32:33.207Z,30.23
2022-09-10T08:35:05.325Z,30.70
2022-09-10T08:37:35.252Z,33.15
2022-09-10T08:40:08.399Z,26.00
2022-09-10T08:42:43.258Z,28.60
2022-09-10T08:45:17.357Z,28.80
2022-09-10T08:47:53.728Z,29.45
2022-09-10T08:50:34.414Z,30.70
2022-09-10T08:55:43.406Z,29.58
2022-09-10T08:58:22.398Z,29.70
2022-09-10T09:00:56.220Z,32.05
2022-09-10T09:03:33.129Z,30.25
2022-09-10T09:06:03.749Z,33.53
2022-09-10T09:08:37.092Z,32.25
2022-09-10T09:11:15.028Z,34.80
2022-09-10T09:14:10.516Z,31.45
2022-09-10T09:16:53.634Z,32.65
2022-09-10T09:19:33.321Z,30.23
2022-09-10T09:22:08.337Z,31.95
2022-09-10T09:24:48.158Z,28.70
2022-09-10T09:27:20.430Z,33.75
2022-09-10T09:29:56.300Z,35.20
2022-09-10T09:32:26.545Z,33.08
2022-09-10T09:34:58.866Z,36.92
2022-09-10T09:37:30.445Z,34.42
2022-09-10T09:40:13.757Z,30.23
2022-09-10T09:42:50.576Z,32.53
2022-09-10T09:45:25.597Z,35.70
2022-09-10T09:47:56.171Z,33.17
2022-09-10T09:50:26.103Z,31.50
2022-09-10T09:52:57.930Z,35.97
2022-09-10T09:55:34.460Z,30.65
2022-09-10T09:58:33.782Z,34.58
2022-09-10T10:01:19.909Z,28.27
2022-09-10T10:03:53.170Z,27.92
2022-09-10T10:06:26.017Z,30.92
2022-09-10T10:09:01.937Z,30.08
2022-09-10T10:11:50.537Z,29.50
2022-09-10T10:14:38.550Z,28.83
2022-09-10T10:17:31.836Z,31.55
2022-09-10T10:20:09.212Z,28.65
2022-09-10T10:22:40.355Z,31.25
2022-09-10T10:27:54.662Z,26.90
2022-09-10T10:30:29.386Z,28.50
2022-09-10T10:33:02.263Z,28.02
2022-09-10T10:35:39.426Z,26.10
2022-09-10T10:38:31.735Z,27.08
2022-09-10T10:41:36.688Z,29.40
2022-09-10T10:44:27.405Z,28.58
2022-09-10T10:47:12.289Z,24.92
2022-09-10T10:49:55.514Z,25.42
2022-09-10T10:52:31.034Z,23.20
2022-09-10T10:55:14.415Z,20.88
2022-09-10T10:58:01.018Z,25.50
2022-09-10T11:00:42.386Z,25.15
2022-09-10T11:03:20.506Z,24.77
2022-09-10T11:05:56.284Z,23.35
2022-09-10T11:08:30.998Z,24.23
2022-09-10T11:11:06.193Z,21.85
2022-09-10T11:13:41.120Z,22.73
2022-09-10T11:16:17.058Z,22.40
2022-09-10T11:18:52.159Z,25.25
2022-09-10T11:21:30.065Z,24.38
2022-09-10T11:24:03.404Z,28.27
2022-09-10T11:26:39.029Z,29.27
2022-09-10T11:29:22.845Z,25.35
2022-09-10T11:32:01.956Z,26.83
2022-09-10T11:34:37.088Z,24.17
2022-09-10T11:37:15.007Z,25.90
2022-09-10T11:39:48.893Z,28.98
2022-09-10T11:42:25.126Z,29.60
2022-09-10T11:45:03.289Z,29.02
2022-09-10T11:47:37.120Z,33.65
2022-09-10T11:50:21.865Z,31.90
2022-09-10T11:52:53.624Z,32.85
2022-09-10T11:55:25.766Z,31.25
2022-09-10T11:58:04.301Z,25.30
2022-09-10T12:00:41.290Z,29.60
2022-09-10T12:03:51.539Z,28.00
2022-09-10T12:06:27.693Z,29.42
2022-09-10T12:09:07.838Z,26.30
2022-09-10T12:11:43.233Z,30.40
2022-09-10T12:14:18.366Z,28.98
2022-09-10T12:16:52.154Z,36.95
2022-09-10T12:19:29.521Z,32.67
2022-09-10T12:22:04.548Z,28.05
2022-09-10T12:24:36.635Z,24.58
2022-09-10T12:27:08.102Z,26.02
2022-09-10T12:29:41.037Z,27.25
2022-09-10T12:32:37.370Z,24.00
2022-09-10T12:35:46.798Z,24.50
2022-09-10T12:38:53.166Z,21.65
2022-09-10T12:42:25.825Z,25.08
2022-09-10T12:44:56.580Z,21.30
2022-09-10T12:47:56.173Z,24.10
2022-09-10T12:50:46.358Z,23.20
2022-09-10T12:53:57.088Z,24.67
2022-09-10T12:56:43.337Z,20.45
2022-09-10T12:59:31.370Z,20.48
2022-09-10T13:02:01.613Z,24.50
2022-09-10T13:04:35.202Z,18.38
2022-09-10T13:07:07.964Z,23.92
2022-09-10T13:09:40.846Z,21.58
2022-09-10T13:12:19.978Z,19.27
2022-09-10T13:14:56.768Z,23.27
2022-09-10T13:17:40.841Z,23.48
2022-09-10T13:20:32.154Z,21.30
2022-09-10T13:23:06.303Z,21.00
2022-09-10T13:25:41.824Z,21.67
2022-09-10T13:28:47.087Z,23.02
2022-09-10T13:31:26.558Z,19.45
2022-09-10T13:34:24.041Z,25.17
2022-09-10T13:37:06.493Z,20.88
2022-09-10T13:40:04.184Z,21.70
2022-09-10T13:42:51.657Z,23.23
2022-09-10T13:45:29.640Z,23.63
2022-09-10T13:48:11.522Z,20.88
2022-09-10T13:50:48.226Z,21.08
2022-09-10T13:53:20.592Z,20.92
2022-09-10T13:55:55.403Z,18.30
2022-09-10T13:58:28.963Z,19.80
2022-09-10T14:01:01.149Z,20.63
2022-09-10T14:03:34.699Z,21.30
2022-09-10T14:06:07.841Z,22.98
2022-09-10T14:08:43.888Z,24.00
2022-09-10T14:11:19.074Z,22.90
2022-09-10T14:13:55.909Z,22.73
2022-09-10T14:16:30.382Z,21.33
2022-09-10T14:19:05.532Z,27.98
2022-09-10T14:21:35.036Z,23.42
2022-09-10T14:24:05.010Z,22.70
2022-09-10T14:26:35.009Z,23.60
2022-09-10T14:29:23.817Z,20.07
2022-09-10T14:31:54.649Z,22.80
2022-09-10T14:34:33.693Z,26.00
2022-09-10T14:37:24.320Z,24.77
2022-09-10T14:39:53.846Z,23.85
2022-09-10T14:42:28.733Z,23.83
2022-09-10T14:44:58.152Z,28.52
2022-09-10T14:47:35.133Z,26.75
2022-09-10T14:50:31.287Z,27.05
2022-09-10T14:53:01.396Z,24.55
2022-09-10T14:55:34.305Z,29.08
2022-09-10T14:58:04.390Z,26.00
2022-09-10T15:00:35.008Z,23.98
2022-09-10T15:03:04.901Z,23.33
2022-09-10T15:05:35.856Z,26.88
2022-09-10T15:08:05.716Z,30.48
2022-09-10T15:10:35.122Z,23.50
2022-09-10T15:13:04.541Z,22.85
2022-09-10T15:15:34.502Z,25.42
2022-09-10T15:18:04.186Z,24.13
2022-09-10T15:20:34.965Z,26.60
2022-09-10T15:23:04.983Z,26.13
2022-09-10T15:25:39.337Z,27.83
2022-09-10T15:28:09.235Z,30.17
2022-09-10T15:30:38.588Z,27.02
2022-09-10T15:33:09.816Z,26.95
2022-09-10T15:35:43.158Z,32.83
2022-09-10T15:38:14.616Z,29.83
2022-09-10T15:40:45.320Z,31.85
2022-09-10T15:43:14.709Z,28.80
2022-09-10T15:45:44.195Z,27.10
2022-09-10T15:48:14.100Z,27.10
2022-09-10T15:50:45.152Z,31.92
2022-09-10T15:53:14.688Z,32.35
2022-09-10T15:55:44.385Z,31.00
2022-09-10T15:58:13.801Z,28.08
2022-09-10T16:00:43.321Z,24.33
2022-09-10T16:03:12.715Z,26.52
2022-09-10T16:05:42.130Z,31.50
2022-09-10T16:08:13.250Z,24.33
2022-09-10T16:13:11.715Z,27.83
2022-09-10T16:15:41.313Z,24.20
2022-09-10T16:18:11.304Z,28.58
2022-09-10T16:20:40.674Z,27.10
2022-09-10T16:23:11.742Z,28.90
2022-09-10T16:28:10.314Z,25.27
2022-09-10T16:30:40.083Z,24.88
2022-09-10T16:33:10.283Z,23.85
2022-09-10T16:35:39.586Z,23.75
2022-09-10T16:38:09.474Z,27.73
2022-09-10T16:40:40.345Z,31.45
2022-09-10T16:43:10.341Z,34.42
2022-09-10T16:45:39.597Z,28.77
2022-09-10T16:48:09.630Z,27.85
2022-09-10T16:50:39.640Z,27.77
2022-09-10T16:53:11.958Z,32.47
2022-09-10T16:55:43.623Z,24.88
2022-09-10T17:00:43.134Z,27.42
2022-09-10T17:03:12.378Z,25.15
2022-09-10T17:05:41.713Z,28.33
2022-09-10T17:08:11.577Z,32.20
2022-09-10T17:10:41.068Z,26.45
2022-09-10T17:13:12.065Z,28.38
2022-09-10T17:15:42.364Z,25.23
2022-09-10T17:18:12.430Z,27.33
2022-09-10T17:20:41.980Z,27.67
2022-09-10T17:23:13.713Z,28.23
2022-09-10T17:25:42.986Z,28.98
2022-09-10T17:28:14.290Z,33.37
2022-09-10T17:30:43.698Z,29.67
2022-09-10T17:33:13.278Z,33.55
2022-09-10T17:35:42.822Z,32.60
2022-09-10T17:38:12.202Z,33.20
2022-09-10T17:40:41.583Z,36.83
2022-09-10T17:43:11.645Z,34.83
2022-09-10T17:45:43.307Z,38.03
2022-09-10T17:48:12.853Z,32.78
2022-09-10T17:50:49.064Z,34.85
2022-09-10T17:53:20.810Z,34.85
2022-09-10T17:55:50.136Z,39.20
2022-09-10T17:58:20.153Z,40.07
2022-09-10T18:00:51.626Z,42.13
2022-09-10T18:03:21.182Z,42.88
2022-09-10T18:05:50.731Z,40.95
2022-09-10T18:08:20.161Z,40.17
2022-09-10T18:10:49.937Z,35.38
2022-09-10T18:13:21.171Z,40.28
2022-09-10T18:15:53.111Z,43.42
2022-09-10T18:18:23.114Z,40.22
2022-09-10T18:20:52.862Z,39.35
2022-09-10T18:23:22.854Z,36.80
2022-09-10T18:25:52.946Z,36.20
2022-09-10T18:30:53.621Z,39.78
2022-09-10T18:35:52.425Z,51.92
2022-09-10T18:38:21.735Z,59.50
2022-09-10T18:40:51.172Z,63.75
2022-09-10T18:43:21.130Z,60.80
2022-09-10T18:45:50.705Z,49.58
2022-09-10T18:48:22.230Z,47.45
2022-09-10T18:50:52.040Z,41.65
2022-09-10T18:53:21.816Z,42.00
2022-09-10T18:55:51.405Z,46.00
2022-09-10T18:58:21.734Z,42.70
2022-09-10T19:00:53.406Z,42.67
2022-09-10T19:03:26.821Z,43.28
2022-09-10T19:08:25.195Z,44.65
2022-09-10T19:10:59.184Z,44.30
2022-09-10T19:13:29.226Z,45.38
2022-09-10T19:16:01.037Z,48.95
2022-09-10T19:18:35.618Z,41.97
2022-09-10T19:21:06.645Z,49.20
2022-09-10T19:23:36.894Z,47.00
2022-09-10T19:26:10.173Z,44.13
2022-09-10T19:28:40.909Z,58.25
2022-09-10T19:31:12.385Z,52.50
2022-09-10T19:33:43.207Z,59.50
2022-09-10T19:36:14.737Z,57.35
2022-09-10T19:38:44.035Z,57.85
2022-09-10T19:41:15.882Z,64.30
2022-09-10T19:43:45.298Z,53.40
2022-09-10T19:46:15.660Z,61.28
2022-09-10T19:48:47.587Z,56.60
2022-09-10T19:51:20.330Z,57.20
2022-09-10T19:53:51.456Z,53.33
2022-09-10T19:56:22.617Z,62.38
2022-09-10T19:58:55.878Z,63.85
2022-09-10T20:01:27.769Z,71.13
2022-09-10T20:04:00.230Z,65.43
2022-09-10T20:06:31.083Z,73.93
2022-09-10T20:09:00.465Z,67.80
2022-09-10T20:11:32.767Z,72.90
2022-09-10T20:14:04.429Z,73.65
2022-09-10T20:16:36.656Z,73.15
2022-09-10T20:19:08.709Z,70.07
2022-09-10T20:21:38.546Z,68.97
2022-09-10T20:24:09.365Z,71.35
2022-09-10T20:26:41.345Z,76.88
2022-09-10T20:29:13.026Z,65.93
2022-09-10T20:31:44.122Z,68.53
2022-09-10T20:34:17.160Z,64.70
2022-09-10T20:36:47.042Z,75.88
2022-09-10T20:39:18.936Z,74.43
2022-09-10T20:41:49.021Z,81.35
2022-09-10T20:44:20.277Z,72.70
2022-09-10T20:46:49.790Z,70.10
2022-09-10T20:49:21.624Z,72.82
2022-09-10T20:51:52.707Z,79.18
2022-09-10T20:54:22.080Z,70.72
2022-09-10T20:56:51.644Z,75.50
2022-09-10T20:59:25.541Z,71.40
2022-09-10T21:01:57.247Z,64.45
2022-09-10T21:04:28.317Z,68.88
2022-09-10T21:06:58.339Z,74.95
2022-09-10T21:09:27.761Z,68.47
2022-09-10T21:11:57.028Z,63.35
2022-09-10T21:14:27.889Z,68.13
2022-09-10T21:16:57.153Z,65.18
2022-09-10T21:19:27.970Z,70.20
2022-09-10T21:21:57.941Z,57.88
2022-09-10T21:24:27.250Z,62.92
2022-09-10T21:26:56.604Z,61.85
2022-09-10T21:29:26.785Z,62.15
2022-09-10T21:31:57.110Z,57.03
2022-09-10T21:34:28.173Z,58.50
2022-09-10T21:39:26.678Z,55.17
2022-09-10T21:41:56.944Z,62.22
2022-09-10T21:44:26.758Z,58.05
2022-09-10T21:46:56.142Z,51.50
2022-09-10T21:49:27.193Z,51.75
2022-09-10T21:51:56.537Z,51.08
2022-09-10T21:54:26.397Z,46.05
2022-09-10T21:56:56.288Z,45.88
2022-09-10T21:59:27.046Z,42.00
2022-09-10T22:01:56.742Z,41.90
2022-09-10T22:04:28.393Z,51.17
2022-09-10T22:06:58.333Z,40.30
2022-09-10T22:09:28.075Z,42.25
2022-09-10T22:11:59.471Z,52.63
2022-09-10T22:14:29.796Z,53.20
2022-09-10T22:17:00.339Z,53.13
2022-09-10T22:22:00.937Z,52.17
2022-09-10T22:24:30.706Z,52.78
2022-09-10T22:27:00.357Z,44.72
2022-09-10T22:29:29.798Z,47.53
2022-09-10T22:31:59.833Z,53.22
2022-09-10T22:34:30.657Z,45.72
2022-09-10T22:37:03.804Z,52.58
2022-09-10T22:39:37.208Z,49.15
2022-09-10T22:42:07.876Z,50.72
2022-09-10T22:44:37.238Z,49.80
2022-09-10T22:47:06.911Z,45.38
2022-09-10T22:49:38.611Z,49.67
2022-09-10T22:52:08.116Z,51.20
2022-09-10T22:54:38.369Z,52.08
2022-09-10T22:57:08.508Z,48.20
2022-09-10T22:59:37.970Z,57.05
2022-09-10T23:02:07.960Z,55.80
2022-09-10T23:04:38.756Z,62.47
2022-09-10T23:09:38.679Z,58.42
2022-09-10T23:12:08.392Z,51.60
2022-09-10T23:14:39.488Z,59.25
2022-09-10T23:17:09.234Z,50.60
2022-09-10T23:19:40.107Z,55.50
2022-09-10T23:22:11.764Z,56.53
2022-09-10T23:24:41.368Z,56.95
2022-09-10T23:27:11.431Z,52.05
2022-09-10T23:29:41.504Z,55.15
2022-09-10T23:32:11.196Z,54.15
2022-09-10T23:34:42.644Z,56.03
2022-09-10T23:37:12.183Z,55.22
2022-09-10T23:39:42.086Z,47.72
2022-09-10T23:42:11.480Z,38.05
2022-09-10T23:44:40.825Z,33.88
2022-09-10T23:47:10.730Z,31.65
2022-09-10T23:49:40.169Z,31.90
2022-09-10T23:52:11.199Z,31.73
2022-09-10T23:54:41.303Z,32.55
2022-09-10T23:57:11.096Z,33.17
2022-09-10T23:59:40.725Z,34.35
